Time;durP1;ratioP1;P1;durP2;ratioP2;P2;SDS_P1;SDS_P2;PMS_P1;PMS_P2;Temp;Humidity;BMP_temperature;BMP_pressure;BME280_temperature;BME280_humidity;BME280_pressure;Samples;Min_cycle;Max_cycle;Signal;HPM_P1;HPM_P2
2022/11/25 00:01:29;;;;;;;16.90;2.90;;;;;;;9.81;100.00;100773.47;5026721;28;20056;-71
2022/11/25 00:03:57;;;;;;;10.95;2.65;;;;;;;9.79;100.00;100770.28;5026826;28;20144;-71
2022/11/25 00:06:26;;;;;;;15.98;2.25;;;;;;;9.83;100.00;100762.03;5031907;28;20107;-71
2022/11/25 00:09:02;;;;;;;11.85;3.05;;;;;;;9.90;100.00;100760.09;5026706;28;20051;-71
2022/11/25 00:11:28;;;;;;;;;;;;;;;9.95;100.00;100754.16;5026667;28;20053;-71
2022/11/25 00:13:56;;;;;;;15.85;2.85;;;;;;;9.94;100.00;100747.06;5027136;28;19928;-71
2022/11/25 00:16:25;;;;;;;19.42;3.28;;;;;;;9.96;100.00;100736.38;5025930;28;20063;-70
2022/11/25 00:18:54;;;;;;;15.30;2.80;;;;;;;9.98;100.00;100739.56;5027049;28;20049;-73
2022/11/25 00:21:26;;;;;;;12.15;2.42;;;;;;;9.98;100.00;100733.22;5024415;28;20048;-71
2022/11/25 00:23:59;;;;;;;16.58;3.03;;;;;;;10.10;100.00;100728.13;5027596;28;20045;-72
2022/11/25 00:26:27;;;;;;;16.67;2.95;;;;;;;10.05;100.00;100725.75;5030300;28;20052;-71
2022/11/25 00:28:57;;;;;;;16.15;2.83;;;;;;;10.11;100.00;100728.94;5028262;28;20421;-71
2022/11/25 00:31:30;;;;;;;12.95;3.03;;;;;;;10.14;100.00;100723.41;5027985;28;20049;-72
2022/11/25 00:33:57;;;;;;;16.35;3.53;;;;;;;10.16;100.00;100723.03;5026023;28;20049;-72
2022/11/25 00:36:26;;;;;;;16.63;3.55;;;;;;;10.19;100.00;100725.78;5021728;28;20049;-71
2022/11/25 00:38:58;;;;;;;23.35;3.35;;;;;;;10.15;100.00;100732.47;5026857;28;20059;-74
2022/11/25 00:46:59;;;;;;;17.63;2.80;;;;;;;10.21;100.00;100730.91;5023023;28;20128;-71
2022/11/25 00:49:25;;;;;;;15.57;3.15;;;;;;;10.18;100.00;100715.91;5034825;28;20052;-71
2022/11/25 00:51:52;;;;;;;21.15;4.35;;;;;;;10.21;100.00;100728.16;5031206;28;20053;-74
2022/11/25 00:54:19;;;;;;;19.33;3.30;;;;;;;10.17;100.00;100725.38;5028814;28;20063;-71
2022/11/25 00:56:45;;;;;;;15.15;2.60;;;;;;;10.13;100.00;100730.13;5025457;28;20049;-72
2022/11/25 00:59:11;;;;;;;17.30;2.97;;;;;;;10.15;100.00;100727.75;5027576;28;20071;-71
2022/11/25 01:01:38;;;;;;;15.27;3.03;;;;;;;10.18;100.00;100735.25;5029020;28;20044;-71
2022/11/25 01:04:06;;;;;;;17.95;3.38;;;;;;;10.16;100.00;100731.31;5034060;28;20724;-70
2022/11/25 01:06:33;;;;;;;15.93;2.80;;;;;;;10.09;100.00;100728.53;5028186;28;20064;-73
2022/11/25 01:09:00;;;;;;;17.65;3.08;;;;;;;10.02;100.00;100734.81;5025895;28;20048;-74
2022/11/25 01:11:27;;;;;;;16.35;3.33;;;;;;;10.05;100.00;100727.69;5026621;28;20045;-72
2022/11/25 01:13:55;;;;;;;13.95;3.03;;;;;;;10.06;100.00;100727.34;5025148;28;20056;-74
2022/11/25 01:16:27;;;;;;;9.23;2.22;;;;;;;10.00;100.00;100726.13;5020717;28;20934;-71
2022/11/25 01:18:54;;;;;;;13.80;2.35;;;;;;;10.06;100.00;100730.09;5027093;28;20049;-71
2022/11/25 01:21:23;;;;;;;15.07;3.03;;;;;;;10.01;100.00;100722.19;5026784;28;20060;-75
2022/11/25 01:23:50;;;;;;;22.05;4.97;;;;;;;10.02;100.00;100723.75;5024713;28;20485;-70
2022/11/25 01:26:20;;;;;;;12.32;2.88;;;;;;;9.96;100.00;100725.31;5034262;28;20041;-73
2022/11/25 01:28:47;;;;;;;16.08;2.65;;;;;;;10.00;100.00;100730.88;5026658;28;20045;-71
2022/11/25 01:31:17;;;;;;;18.08;2.75;;;;;;;9.99;100.00;100721.00;5024269;28;20045;-74
2022/11/25 01:33:45;;;;;;;15.15;3.00;;;;;;;9.98;100.00;100719.41;5029931;28;20071;-73
2022/11/25 01:36:15;;;;;;;16.75;3.45;;;;;;;9.96;100.00;100725.31;5030767;28;20694;-72
2022/11/25 01:38:42;;;;;;;13.73;2.80;;;;;;;9.93;100.00;100715.03;5034717;28;20055;-74
2022/11/25 01:41:11;;;;;;;13.52;2.90;;;;;;;9.91;100.00;100708.34;5033323;28;20061;-71
2022/11/25 01:43:39;;;;;;;13.27;2.85;;;;;;;9.89;100.00;100707.97;5029935;28;20132;-71
2022/11/25 01:46:17;;;;;;;11.32;2.90;;;;;;;9.85;100.00;100707.13;5019683;28;20057;-71
2022/11/25 01:48:57;;;;;;;20.65;3.30;;;;;;;9.90;100.00;100715.06;5024775;28;20155;-71
2022/11/25 01:51:26;;;;;;;14.90;3.45;;;;;;;9.87;100.00;100708.34;5030143;28;20064;-70
2022/11/25 01:53:58;;;;;;;22.48;2.92;;;;;;;9.92;100.00;100721.75;5034153;28;20048;-71
2022/11/25 01:56:28;;;;;;;13.23;2.78;;;;;;;9.92;100.00;100719.00;5034459;28;20577;-70
2022/11/25 01:58:55;;;;;;;12.43;2.83;;;;;;;9.91;100.00;100716.63;5029854;28;20048;-71
2022/11/25 02:01:22;;;;;;;15.60;3.35;;;;;;;9.88;100.00;100709.13;5030370;28;20068;-71
2022/11/25 02:03:53;;;;;;;12.57;2.78;;;;;;;9.80;100.00;100704.78;5024062;28;20896;-72
2022/11/25 02:06:26;;;;;;;16.58;3.58;;;;;;;9.93;100.00;100708.75;5030591;28;20049;-71
2022/11/25 02:08:58;;;;;;;13.30;3.00;;;;;;;9.87;100.00;100702.81;5042040;28;20048;-71
2022/11/25 02:11:27;;;;;;;12.23;2.75;;;;;;;9.87;100.00;100700.06;5035825;28;20045;-70
2022/11/25 02:13:54;;;;;;;11.98;2.70;;;;;;;9.87;100.00;100697.28;5028566;28;20048;-70
2022/11/25 02:16:20;;;;;;;13.05;2.80;;;;;;;9.90;100.00;100699.28;5025440;28;20049;-71
2022/11/25 02:18:48;;;;;;;13.80;3.05;;;;;;;9.89;100.00;100694.91;5026894;28;20045;-72
2022/11/25 02:21:39;;;;;;;17.10;2.92;;;;;;;9.91;100.00;100694.53;5029166;28;20053;-69
2022/11/25 02:24:14;;;;;;;13.38;3.20;;;;;;;9.93;100.00;100692.94;5055492;28;20060;-69
2022/11/25 02:26:41;;;;;;;18.58;3.53;;;;;;;9.95;100.00;100690.59;5049733;28;20068;-70
2022/11/25 02:29:07;;;;;;;15.93;2.88;;;;;;;9.90;100.00;100677.16;5050330;28;20056;-69
2022/11/25 02:31:34;;;;;;;11.93;3.08;;;;;;;9.93;100.00;100684.66;5050602;28;20055;-73
2022/11/25 02:34:00;;;;;;;17.15;3.10;;;;;;;9.99;100.00;100685.84;5054942;28;20582;-70
2022/11/25 02:36:27;;;;;;;14.27;2.80;;;;;;;9.97;100.00;100674.41;5050174;28;20505;-70
2022/11/25 02:38:57;;;;;;;14.50;2.83;;;;;;;9.99;100.00;100679.53;5049964;28;20525;-70
2022/11/25 02:41:33;;;;;;;9.52;2.42;;;;;;;9.98;100.00;100680.72;5048563;28;20049;-69
2022/11/25 02:44:00;;;;;;;12.05;2.50;;;;;;;10.05;100.00;100689.00;5049938;28;20045;-70
2022/11/25 02:46:28;;;;;;;17.08;3.13;;;;;;;10.14;100.00;100676.41;5048977;28;20049;-72
2022/11/25 02:48:57;;;;;;;12.13;2.90;;;;;;;10.15;100.00;100679.94;5055226;28;20044;-71
2022/11/25 02:51:42;;;;;;;15.35;3.30;;;;;;;10.20;100.00;100674.03;5047816;28;20056;-69
2022/11/25 02:54:10;;;;;;;13.13;2.90;;;;;;;10.20;100.00;100671.28;5050205;28;20057;-69
2022/11/25 02:56:37;;;;;;;20.63;3.40;;;;;;;10.21;100.00;100673.66;5048835;28;20052;-69
2022/11/25 02:59:03;;;;;;;18.90;3.22;;;;;;;10.25;100.00;100687.44;5049289;28;20049;-73
2022/11/25 03:01:31;;;;;;;11.68;2.10;;;;;;;10.25;100.00;100687.44;5048523;28;20083;-69
2022/11/25 03:03:58;;;;;;;12.52;3.13;;;;;;;10.29;100.00;100689.03;5052979;28;20060;-72
2022/11/25 03:06:25;;;;;;;13.90;2.65;;;;;;;10.35;100.00;100690.22;5049620;28;20044;-71
2022/11/25 03:08:52;;;;;;;11.05;2.25;;;;;;;10.37;100.00;100695.38;5049246;28;20060;-71
2022/11/25 03:11:19;;;;;;;8.32;2.40;;;;;;;10.42;100.00;100695.75;5046522;28;20561;-68
2022/11/25 03:13:45;;;;;;;11.63;2.78;;;;;;;10.43;100.00;100682.72;5049658;28;20076;-70
2022/11/25 03:16:12;;;;;;;13.60;2.83;;;;;;;10.46;100.00;100699.31;5050935;28;20068;-71
2022/11/25 03:18:38;;;;;;;9.93;1.50;;;;;;;10.43;100.00;100697.31;5048938;28;20096;-73
2022/11/25 03:21:06;;;;;;;15.82;2.83;;;;;;;10.57;100.00;100701.25;5048523;28;20060;-70
2022/11/25 03:23:32;;;;;;;19.42;3.13;;;;;;;10.50;100.00;100700.09;5048566;28;20056;-70
2022/11/25 03:25:59;;;;;;;16.88;3.05;;;;;;;10.53;100.00;100704.81;5049207;28;20062;-70
2022/11/25 03:28:25;;;;;;;9.10;2.65;;;;;;;10.47;100.00;100708.41;5048968;28;20488;-69
2022/11/25 03:30:51;;;;;;;17.92;3.35;;;;;;;10.50;100.00;100707.63;5050467;28;20044;-70
2022/11/25 03:33:18;;;;;;;12.40;2.92;;;;;;;10.47;100.00;100711.94;5048298;28;20532;-68
2022/11/25 03:35:47;;;;;;;14.88;4.93;;;;;;;10.46;100.00;100713.13;5047476;28;20059;-71
2022/11/25 03:38:13;;;;;;;14.48;3.03;;;;;;;10.44;100.00;100712.72;5047930;28;20080;-70
2022/11/25 03:40:40;;;;;;;15.85;4.05;;;;;;;10.41;100.00;100710.78;5048469;28;20049;-69
2022/11/25 03:43:06;;;;;;;15.88;3.13;;;;;;;10.36;100.00;100713.94;5047857;28;20061;-69
2022/11/25 03:45:33;;;;;;;11.75;3.25;;;;;;;10.34;100.00;100709.97;5049095;28;20057;-70
2022/11/25 03:47:59;;;;;;;18.50;3.08;;;;;;;10.36;100.00;100715.88;5048901;28;20048;-70
2022/11/25 03:50:26;;;;;;;16.63;3.55;;;;;;;10.34;100.00;100730.16;5047038;28;20049;-70
2022/11/25 03:52:52;;;;;;;11.98;2.40;;;;;;;10.34;100.00;100719.09;5052478;28;20117;-69
2022/11/25 03:55:19;;;;;;;13.30;2.67;;;;;;;10.36;100.00;100727.75;5048529;28;20425;-70
2022/11/25 03:57:45;;;;;;;14.07;2.50;;;;;;;10.44;100.00;100717.50;5048317;28;20061;-69
2022/11/25 04:00:13;;;;;;;12.50;3.13;;;;;;;10.46;100.00;100713.13;5046727;28;20055;-70
2022/11/25 04:02:39;;;;;;;7.30;1.58;;;;;;;10.43;100.00;100727.75;5048197;28;20053;-71
2022/11/25 04:05:06;;;;;;;20.75;3.33;;;;;;;10.47;100.00;100720.22;5048409;28;20064;-70
2022/11/25 04:07:33;;;;;;;2.67;0.88;;;;;;;10.43;100.00;100721.44;5047864;28;20425;-70
2022/11/25 04:09:59;;;;;;;15.38;3.80;;;;;;;10.50;100.00;100715.91;5047117;28;20413;-70
2022/11/25 04:15:11;;;;;;;11.80;2.63;;;;;;;10.42;100.00;100736.44;5047961;28;20570;-69
2022/11/25 04:17:37;;;;;;;17.55;3.20;;;;;;;10.39;100.00;100724.19;5045918;28;20044;-69
2022/11/25 04:20:04;;;;;;;12.70;3.15;;;;;;;10.39;100.00;100724.19;5047535;28;20045;-70
2022/11/25 04:22:31;;;;;;;15.95;2.90;;;;;;;10.36;100.00;100738.81;5047563;28;20509;-69
2022/11/25 04:24:57;;;;;;;16.40;3.10;;;;;;;10.32;100.00;100737.22;5048372;28;20055;-68
2022/11/25 04:27:24;;;;;;;3.65;1.55;;;;;;;10.28;100.00;100736.44;5048158;28;20075;-69
2022/11/25 04:29:50;;;;;;;24.05;4.25;;;;;;;10.40;100.00;100747.13;5050187;28;20056;-68
2022/11/25 04:32:17;;;;;;;10.82;2.78;;;;;;;10.34;100.00;100757.81;5046707;28;20053;-69
2022/11/25 04:34:43;;;;;;;13.57;3.10;;;;;;;10.34;100.00;100752.28;5047580;28;20524;-70
2022/11/25 04:37:10;;;;;;;9.95;2.88;;;;;;;10.35;100.00;100753.84;5050159;28;20417;-69
2022/11/25 04:39:36;;;;;;;8.15;1.80;;;;;;;10.33;100.00;100753.44;5047238;28;20129;-70
2022/11/25 04:44:48;;;;;;;12.48;3.20;;;;;;;10.40;100.00;100758.19;5048292;28;20059;-70
2022/11/25 04:47:34;;;;;;;7.53;2.22;;;;;;;10.36;100.00;100760.94;5050934;28;20107;-69
2022/11/25 04:50:02;;;;;;;11.82;2.50;;;;;;;10.40;100.00;100766.50;5046587;28;20052;-69
2022/11/25 04:52:29;;;;;;;6.25;1.42;;;;;;;10.33;100.00;100758.97;5047508;28;20096;-68
2022/11/25 04:54:55;;;;;;;9.13;2.35;;;;;;;10.40;100.00;100761.72;5048248;28;20136;-69
2022/11/25 04:57:22;;;;;;;7.10;2.05;;;;;;;10.39;100.00;100759.34;5047907;28;20055;-71
2022/11/25 04:59:48;;;;;;;13.73;3.13;;;;;;;10.41;100.00;100779.94;5049752;28;20513;-72
2022/11/25 05:02:19;;;;;;;11.45;2.40;;;;;;;10.45;100.00;100780.72;5047461;28;20502;-71
2022/11/25 05:04:48;;;;;;;28.27;4.25;;;;;;;10.40;100.00;100766.50;5047406;28;20497;-71
2022/11/25 05:07:16;;;;;;;13.23;3.10;;;;;;;10.48;100.00;100791.00;5050811;28;20056;-71
2022/11/25 05:09:44;;;;;;;9.68;2.30;;;;;;;10.45;100.00;100788.22;5046868;28;20061;-71
2022/11/25 05:12:21;;;;;;;20.75;3.67;;;;;;;10.42;100.00;100787.03;5051294;28;20069;-71
2022/11/25 05:14:48;;;;;;;17.88;3.50;;;;;;;10.40;100.00;100786.63;5051172;28;20052;-68
2022/11/25 05:17:17;;;;;;;16.95;3.72;;;;;;;10.30;100.00;100786.63;5053287;28;20060;-69
2022/11/25 05:19:44;;;;;;;15.38;3.28;;;;;;;10.37;100.00;100801.25;5050924;28;20071;-69
2022/11/25 05:22:19;;;;;;;11.27;2.60;;;;;;;10.32;100.00;100793.34;5051833;28;20048;-72
2022/11/25 05:24:46;;;;;;;8.52;2.58;;;;;;;10.29;100.00;100796.91;5051038;28;20048;-70
2022/11/25 05:27:13;;;;;;;17.73;4.05;;;;;;;10.25;100.00;100793.34;5052233;28;20053;-71
2022/11/25 05:29:40;;;;;;;14.05;2.70;;;;;;;10.21;100.00;100805.56;5050415;28;20053;-72
2022/11/25 05:32:07;;;;;;;13.90;3.03;;;;;;;10.23;100.00;100792.16;5053806;28;20064;-71
2022/11/25 05:34:34;;;;;;;17.75;4.47;;;;;;;10.21;100.00;100800.84;5052148;28;20064;-70
2022/11/25 05:37:01;;;;;;;8.98;2.72;;;;;;;10.19;100.00;100800.44;5050821;28;20085;-70
2022/11/25 05:39:27;;;;;;;11.88;2.33;;;;;;;10.16;100.00;100795.69;5051215;28;20064;-70
2022/11/25 05:41:53;;;;;;;22.23;4.07;;;;;;;10.22;100.00;100807.94;5050716;28;20041;-72
2022/11/25 05:44:20;;;;;;;12.55;3.30;;;;;;;10.24;100.00;100804.78;5052409;28;20056;-71
2022/11/25 05:46:49;;;;;;;16.83;3.88;;;;;;;10.25;100.00;100804.41;5051320;28;20151;-71
2022/11/25 05:49:16;;;;;;;19.70;3.70;;;;;;;10.24;100.00;100807.56;5050908;28;20041;-71
2022/11/25 05:51:43;;;;;;;16.90;4.13;;;;;;;10.23;100.00;100805.97;5049967;28;20049;-71
2022/11/25 05:54:09;;;;;;;18.48;4.05;;;;;;;10.26;100.00;100810.72;5054483;28;20067;-71
2022/11/25 05:56:36;;;;;;;15.77;4.40;;;;;;;10.18;100.00;100818.22;5049693;28;20060;-71
2022/11/25 05:59:04;;;;;;;20.90;3.47;;;;;;;10.21;100.00;100811.91;5051212;28;20053;-72
2022/11/25 06:01:32;;;;;;;16.73;3.90;;;;;;;10.14;100.00;100811.91;5049988;28;20041;-69
2022/11/25 06:04:00;;;;;;;21.50;4.15;;;;;;;10.17;100.00;100813.06;5050328;28;20060;-71
2022/11/25 06:06:27;;;;;;;17.70;4.15;;;;;;;10.17;100.00;100808.31;5050218;28;20469;-70
2022/11/25 06:08:53;;;;;;;22.05;4.60;;;;;;;10.14;100.00;100800.84;5054971;28;20052;-71
2022/11/25 06:11:20;;;;;;;20.23;4.85;;;;;;;10.13;100.00;100802.00;5049968;28;20052;-70
2022/11/25 06:13:46;;;;;;;17.98;4.40;;;;;;;10.10;100.00;100813.06;5049850;28;20049;-67
2022/11/25 06:16:15;;;;;;;4.90;1.70;;;;;;;10.07;100.00;100822.13;5082282;28;20052;-69
2022/11/25 06:18:42;;;;;;;2.33;1.52;;;;;;;10.00;100.00;100831.16;5050705;28;20083;-71
2022/11/25 06:21:09;;;;;;;16.05;3.60;;;;;;;10.07;100.00;100830.44;5050601;28;20045;-70
2022/11/25 06:23:37;;;;;;;6.35;1.95;;;;;;;10.02;100.00;100831.56;5049582;28;20056;-69
2022/11/25 06:26:03;;;;;;;8.77;3.15;;;;;;;9.97;100.00;100851.31;5050457;28;20057;-73
2022/11/25 06:28:30;;;;;;;15.07;3.80;;;;;;;10.01;100.00;100846.56;5050601;28;20048;-70
2022/11/25 06:31:03;;;;;;;15.38;4.55;;;;;;;10.06;100.00;100846.22;5052540;28;20053;-68
2022/11/25 06:33:30;;;;;;;18.27;3.55;;;;;;;10.00;100.00;100852.50;5052928;28;20049;-70
2022/11/25 06:35:56;;;;;;;19.20;4.43;;;;;;;9.99;100.00;100850.91;5043236;28;20049;-71
2022/11/25 06:38:22;;;;;;;6.35;2.20;;;;;;;9.98;100.00;100863.13;5050625;28;20053;-70
2022/11/25 06:40:49;;;;;;;18.40;3.53;;;;;;;10.02;100.00;100859.22;5049216;28;20057;-71
2022/11/25 06:43:15;;;;;;;22.70;4.03;;;;;;;9.97;100.00;100856.84;5049705;28;20144;-70
2022/11/25 06:45:42;;;;;;;13.32;3.13;;;;;;;9.97;100.00;100858.78;5049583;28;20045;-69
2022/11/25 06:48:08;;;;;;;16.83;3.50;;;;;;;9.95;100.00;100867.47;5049456;28;20053;-70
2022/11/25 06:50:35;;;;;;;13.85;2.17;;;;;;;9.90;100.00;100870.63;5049007;28;20049;-70
2022/11/25 06:53:01;;;;;;;14.65;5.65;;;;;;;10.00;100.00;100875.38;5055137;28;20049;-71
2022/11/25 06:55:28;;;;;;;22.67;4.53;;;;;;;10.01;100.00;100878.94;5049486;28;20057;-71
2022/11/25 06:57:54;;;;;;;18.52;4.40;;;;;;;10.00;100.00;100880.13;5049786;28;20057;-71
2022/11/25 07:00:41;;;;;;;16.25;4.55;;;;;;;10.02;100.00;100886.84;5048265;28;20056;-72
2022/11/25 07:03:07;;;;;;;21.98;5.05;;;;;;;10.03;100.00;100885.66;5048470;28;20080;-73
2022/11/25 07:05:34;;;;;;;14.48;4.38;;;;;;;10.00;100.00;100889.19;5049115;28;20056;-69
2022/11/25 07:08:00;;;;;;;22.02;4.75;;;;;;;9.98;100.00;100890.78;5040848;28;20053;-71
2022/11/25 07:10:26;;;;;;;21.30;5.25;;;;;;;9.93;100.00;100894.69;5048011;28;20052;-70
2022/11/25 07:12:53;;;;;;;15.40;3.90;;;;;;;9.94;100.00;100901.03;5052887;28;20045;-70
2022/11/25 07:15:20;;;;;;;11.73;2.97;;;;;;;9.90;100.00;100912.09;5048133;28;20056;-70
2022/11/25 07:17:46;;;;;;;17.02;4.63;;;;;;;9.95;100.00;100921.97;5049652;28;20049;-70
2022/11/25 07:20:12;;;;;;;23.67;6.35;;;;;;;9.94;100.00;100921.19;5051662;28;20041;-70
2022/11/25 07:22:39;;;;;;;22.67;6.00;;;;;;;9.93;100.00;100924.34;5047965;28;20048;-70
2022/11/25 07:25:08;;;;;;;27.00;6.75;;;;;;;9.89;100.00;100927.06;5040723;28;20132;-69
2022/11/25 07:27:34;;;;;;;27.20;8.27;;;;;;;9.92;100.00;100931.81;5028781;28;20110;-69
2022/11/25 07:30:01;;;;;;;24.58;7.25;;;;;;;9.95;100.00;100930.25;5045740;28;20045;-69
2022/11/25 07:32:47;;;;;;;27.15;6.63;;;;;;;9.91;100.00;100937.75;5042472;28;20053;-69
2022/11/25 07:35:14;;;;;;;30.98;4.28;;;;;;;9.86;100.00;100938.13;5049588;28;20114;-68
2022/11/25 07:37:40;;;;;;;20.30;5.47;;;;;;;9.92;100.00;100934.59;5048947;28;20056;-70
2022/11/25 07:40:07;;;;;;;25.05;5.60;;;;;;;9.92;100.00;100936.53;5048210;28;20049;-70
2022/11/25 07:42:33;;;;;;;14.10;5.05;;;;;;;9.93;100.00;100936.16;5046607;28;20410;-69
2022/11/25 07:45:00;;;;;;;19.67;4.93;;;;;;;9.92;100.00;100942.88;5053837;28;20041;-69
2022/11/25 07:47:26;;;;;;;19.33;4.75;;;;;;;9.90;100.00;100944.44;5048947;28;20083;-69
2022/11/25 07:49:53;;;;;;;13.45;4.03;;;;;;;9.84;100.00;100949.56;5050773;28;20135;-69
2022/11/25 07:52:19;;;;;;;22.58;5.38;;;;;;;9.88;100.00;100944.84;5047366;28;20049;-70
2022/11/25 07:54:46;;;;;;;16.25;4.60;;;;;;;9.86;100.00;100944.41;5051659;28;20044;-69
2022/11/25 07:57:12;;;;;;;21.40;4.30;;;;;;;9.78;100.00;100962.16;5051318;28;20044;-70
2022/11/25 07:59:40;;;;;;;19.25;5.10;;;;;;;9.80;100.00;100959.81;5042416;28;20055;-69
2022/11/25 08:02:09;;;;;;;20.80;5.50;;;;;;;9.84;100.00;100959.81;5052264;28;20796;-71
2022/11/25 08:04:36;;;;;;;20.17;4.95;;;;;;;9.81;100.00;100964.16;5048767;28;20053;-68
2022/11/25 08:07:02;;;;;;;25.33;5.93;;;;;;;9.86;100.00;100966.53;5047755;28;20056;-72
2022/11/25 08:09:29;;;;;;;19.25;5.07;;;;;;;9.82;100.00;100967.72;5048328;28;20045;-69
2022/11/25 08:11:55;;;;;;;19.25;4.72;;;;;;;9.82;100.00;100978.78;5047176;28;20072;-72
2022/11/25 08:14:22;;;;;;;13.52;4.20;;;;;;;9.76;100.00;100975.53;5052166;28;20075;-71
2022/11/25 08:16:48;;;;;;;10.95;3.63;;;;;;;9.86;100.00;100985.09;5047709;28;20532;-70
2022/11/25 08:19:16;;;;;;;27.42;5.13;;;;;;;9.93;100.00;100990.69;5047350;28;20053;-71
2022/11/25 08:21:43;;;;;;;22.35;5.22;;;;;;;9.97;100.00;100991.47;5046749;28;20044;-70
2022/11/25 08:24:19;;;;;;;24.17;5.88;;;;;;;9.99;100.00;100987.16;5049854;28;20512;-71
2022/11/25 08:26:46;;;;;;;16.83;5.82;;;;;;;10.01;100.00;100982.03;5046574;28;20056;-72
2022/11/25 08:29:15;;;;;;;21.13;4.82;;;;;;;10.04;100.00;100989.56;5048423;28;20079;-70
2022/11/25 08:31:41;;;;;;;18.10;4.72;;;;;;;10.02;100.00;100993.88;5045026;28;20500;-72
2022/11/25 08:34:17;;;;;;;17.80;4.50;;;;;;;10.06;100.00;101000.25;5048156;28;20056;-71
2022/11/25 08:36:43;;;;;;;19.67;5.25;;;;;;;10.02;100.00;101005.72;5049198;28;20061;-71
2022/11/25 08:39:14;;;;;;;14.02;4.68;;;;;;;10.07;100.00;101012.91;5051602;28;20053;-69
2022/11/25 08:42:03;;;;;;;20.67;4.55;;;;;;;10.09;100.00;101005.78;5047184;28;20048;-72
2022/11/25 08:44:30;;;;;;;11.55;3.22;;;;;;;10.15;100.00;101015.31;5042318;28;20056;-72
2022/11/25 08:46:56;;;;;;;18.23;4.15;;;;;;;10.20;100.00;101023.22;5057397;28;20047;-71
2022/11/25 08:49:25;;;;;;;20.52;5.35;;;;;;;10.13;100.00;101014.91;5057683;28;20049;-71
2022/11/25 08:51:52;;;;;;;8.95;3.70;;;;;;;10.17;100.00;101024.00;5051634;28;20060;-71
2022/11/25 08:54:18;;;;;;;17.98;4.38;;;;;;;10.27;100.00;101028.78;5053609;28;20053;-71
2022/11/25 08:56:45;;;;;;;8.27;2.50;;;;;;;10.32;100.00;101020.13;5049777;28;20052;-71
2022/11/25 08:59:12;;;;;;;16.77;4.38;;;;;;;10.44;100.00;101030.06;5051423;28;20513;-72
2022/11/25 09:01:38;;;;;;;11.02;2.72;;;;;;;10.43;100.00;101026.50;5050006;28;20759;-71
2022/11/25 09:04:05;;;;;;;18.85;4.53;;;;;;;10.59;100.00;101022.63;5050263;28;20106;-71
2022/11/25 09:06:31;;;;;;;11.63;3.25;;;;;;;10.59;100.00;101020.63;5051213;28;20056;-71
2022/11/25 09:09:00;;;;;;;14.18;3.97;;;;;;;10.69;100.00;101013.56;5046893;28;20083;-72
2022/11/25 09:11:27;;;;;;;7.60;2.75;;;;;;;10.69;100.00;101032.94;5048835;28;20042;-72
2022/11/25 09:13:53;;;;;;;11.40;4.18;;;;;;;10.74;100.00;101016.75;5062739;28;20393;-70
2022/11/25 09:16:20;;;;;;;5.43;1.85;;;;;;;10.83;100.00;101028.22;5069807;28;20056;-70
2022/11/25 09:18:47;;;;;;;13.25;2.88;;;;;;;10.91;100.00;101032.63;5065604;28;20056;-72
2022/11/25 09:21:21;;;;;;;7.72;2.75;;;;;;;10.94;100.00;101036.56;5063056;28;20044;-72
2022/11/25 09:23:50;;;;;;;8.95;2.38;;;;;;;10.95;100.00;101038.13;5049530;28;20056;-72
2022/11/25 09:26:24;;;;;;;10.27;3.20;;;;;;;10.91;100.00;101037.34;5039920;28;20055;-71
2022/11/25 09:28:50;;;;;;;7.97;2.72;;;;;;;10.94;100.00;101058.72;5058919;28;20524;-72
2022/11/25 09:31:18;;;;;;;18.27;4.55;;;;;;;10.97;100.00;101052.41;5069302;28;20049;-71
2022/11/25 09:33:45;;;;;;;14.68;2.80;;;;;;;11.07;100.00;101049.63;5066575;28;20151;-72
2022/11/25 09:36:13;;;;;;;7.82;2.63;;;;;;;11.17;100.00;101057.16;5066671;28;20055;-72
2022/11/25 09:38:43;;;;;;;8.00;2.83;;;;;;;11.15;100.00;101075.38;5036900;28;21518;-70
2022/11/25 09:47:31;;;;;;;5.10;2.40;;;;;;;11.42;100.00;101079.38;5049691;28;20394;-71
2022/11/25 09:50:37;;;;;;;8.15;2.63;;;;;;;11.58;100.00;101079.81;5060244;28;20044;-72
2022/11/25 09:53:16;;;;;;;2.90;1.85;;;;;;;11.67;100.00;101082.97;5063977;28;20476;-72
2022/11/25 09:55:46;;;;;;;7.78;2.20;;;;;;;11.74;100.00;101086.56;5057897;28;20044;-72
2022/11/25 09:58:33;;;;;;;6.50;2.30;;;;;;;11.66;100.00;101087.75;5050789;28;20059;-72
2022/11/25 10:01:05;;;;;;;3.88;2.10;;;;;;;11.53;100.00;101094.84;5049058;28;20044;-71
2022/11/25 10:03:40;;;;;;;13.95;2.83;;;;;;;11.46;100.00;101102.34;5054846;28;20111;-72
2022/11/25 10:06:20;;;;;;;12.05;2.20;;;;;;;11.51;100.00;101113.06;5050038;28;20057;-72
2022/11/25 10:08:51;;;;;;;9.68;2.85;;;;;;;11.34;100.00;101124.91;5050060;28;20181;-71
2022/11/25 10:11:25;;;;;;;4.03;1.60;;;;;;;11.47;100.00;101121.34;5082444;28;20052;-72
2022/11/25 10:14:13;;;;;;;12.73;3.53;;;;;;;11.64;100.00;101122.59;5050368;28;20592;-72
2022/11/25 10:16:56;;;;;;;8.77;2.15;;;;;;;11.62;100.00;101117.44;5053036;28;20414;-72
2022/11/25 10:19:47;;;;;;;12.98;3.90;;;;;;;11.68;100.00;101134.47;5050580;28;20057;-72
2022/11/25 10:22:29;;;;;;;5.38;2.05;;;;;;;11.85;100.00;101128.16;5030338;28;20049;-72
2022/11/25 10:24:59;;;;;;;7.80;2.03;;;;;;;12.01;100.00;101131.31;5082163;28;20054;-72
2022/11/25 10:27:43;;;;;;;10.05;2.72;;;;;;;12.06;100.00;101128.16;5053071;28;20045;-72
2022/11/25 10:30:22;;;;;;;12.52;3.40;;;;;;;12.42;100.00;101135.25;5049402;28;20083;-72
2022/11/25 10:33:14;;;;;;;10.90;3.10;;;;;;;12.45;100.00;101137.19;5080557;28;20572;-71
2022/11/25 10:35:51;;;;;;;5.55;1.83;;;;;;;12.50;100.00;101142.34;5045923;28;20094;-71
2022/11/25 10:38:34;;;;;;;10.73;3.67;;;;;;;12.57;100.00;101137.59;5050059;28;20048;-73
2022/11/25 10:41:03;;;;;;;10.32;2.03;;;;;;;12.32;100.00;101141.59;5081286;28;20160;-71
2022/11/25 10:43:30;;;;;;;12.48;3.55;;;;;;;12.74;100.00;101141.50;5057048;28;20048;-73
2022/11/25 10:46:06;;;;;;;16.98;4.40;;;;;;;13.67;100.00;101137.88;5049194;28;20118;-71
2022/11/25 10:49:04;;;;;;;23.00;4.30;;;;;;;15.03;100.00;101139.34;5050396;28;20135;-72
2022/11/25 10:51:44;;;;;;;9.55;3.20;;;;;;;15.34;100.00;101142.91;5035844;28;20497;-74
2022/11/25 10:54:21;;;;;;;10.27;3.15;;;;;;;16.41;100.00;101140.81;5055461;28;20470;-74
2022/11/25 10:57:01;;;;;;;14.13;4.63;;;;;;;17.64;99.63;101139.09;5050415;28;20406;-73
2022/11/25 10:59:35;;;;;;;8.60;2.70;;;;;;;17.26;90.66;101149.13;5049377;28;20053;-71
2022/11/25 11:02:18;;;;;;;6.50;2.35;;;;;;;16.98;93.90;101158.09;5047724;28;20053;-74
2022/11/25 11:05:08;;;;;;;3.65;1.65;;;;;;;17.65;88.65;101146.28;5038494;28;20057;-72
2022/11/25 11:07:40;;;;;;;7.43;2.85;;;;;;;18.06;87.79;101148.47;5047504;28;20049;-72
2022/11/25 11:10:25;;;;;;;12.45;3.45;;;;;;;18.33;85.81;101152.59;5056282;28;20783;-72
2022/11/25 11:12:59;;;;;;;4.97;2.17;;;;;;;18.60;77.65;101155.91;5045441;28;20045;-72
2022/11/25 11:15:27;;;;;;;14.45;4.25;;;;;;;18.54;80.97;101154.06;5050416;28;20067;-72
2022/11/25 11:17:55;;;;;;;7.50;2.53;;;;;;;18.29;77.81;101163.06;5048839;28;20545;-72
2022/11/25 11:20:29;;;;;;;15.98;3.53;;;;;;;18.60;79.01;101161.50;5044842;28;20076;-72
2022/11/25 11:22:57;;;;;;;8.57;2.50;;;;;;;18.13;80.10;101170.69;5048832;28;20489;-73
2022/11/25 11:25:27;;;;;;;10.52;2.67;;;;;;;17.53;82.15;101167.31;5048581;28;20052;-71
2022/11/25 11:27:54;;;;;;;14.10;3.15;;;;;;;17.73;81.49;101173.66;5048800;28;20049;-72
2022/11/25 11:30:24;;;;;;;11.23;3.63;;;;;;;18.21;81.82;101174.88;5030145;28;20049;-71
2022/11/25 11:33:32;;;;;;;7.53;2.38;;;;;;;17.83;80.37;101177.44;5045464;28;20499;-72
2022/11/25 11:36:22;;;;;;;5.45;1.70;;;;;;;17.55;83.01;101180.88;5028441;28;20052;-71
2022/11/25 11:38:52;;;;;;;5.45;2.25;;;;;;;18.82;75.51;101182.09;5043552;28;20163;-71
2022/11/25 11:41:21;;;;;;;10.00;3.15;;;;;;;18.76;75.46;101185.91;5044526;28;20053;-71
2022/11/25 11:44:03;;;;;;;12.55;3.47;;;;;;;19.01;74.61;101191.59;5046962;28;20058;-72